Terminal Aerodrome Forecast
Issued by NWS

Home | Current Version | Previous Version | Text Only | Print | Product List | Glossary On
Versions: 1 2 3 4 5 6 7 8 9 10 11 12 13 14 15 16 17 18 19
000
FTUS45 KABQ 010539
TAFTCC
TAF
KTCC 010539Z 0106/0206 19011KT 6SM -SHRA VCTS SCT015 BKN040CB
     FM010900 02010KT P6SM VCSH SCT015 OVC040
     FM011100 05007KT 6SM BR VCSH OVC020
     FM011600 05006KT P6SM BKN035
     FM012100 11008KT P6SM VCSH BKN060=

USA.gov is the U.S. government's official web portal to all federal, state and local government web resources and services.